createdAt,value
2022-11-28T00:00:00.507Z,69.60
2022-11-28T00:00:13.052Z,69.80
2022-11-28T00:00:25.380Z,69.63
2022-11-28T00:00:37.481Z,69.72
2022-11-28T00:00:52.187Z,69.49
2022-11-28T00:01:06.598Z,69.17
2022-11-28T00:01:23.645Z,69.33
2022-11-28T00:01:37.619Z,69.80
2022-11-28T00:01:49.838Z,69.38
2022-11-28T00:02:01.938Z,69.30
2022-11-28T00:02:13.997Z,69.77
2022-11-28T00:02:26.237Z,69.43
2022-11-28T00:02:38.380Z,69.75
2022-11-28T00:02:50.616Z,69.46
2022-11-28T00:03:02.645Z,69.75
2022-11-28T00:03:14.971Z,69.73
2022-11-28T00:03:27.390Z,69.79
2022-11-28T00:03:39.787Z,69.72
2022-11-28T00:03:51.935Z,68.98
2022-11-28T00:04:06.045Z,69.17
2022-11-28T00:04:18.216Z,69.12
2022-11-28T00:04:30.302Z,69.51
2022-11-28T00:04:42.701Z,69.31
2022-11-28T00:04:54.930Z,69.74
2022-11-28T00:05:09.682Z,69.56
2022-11-28T00:05:21.713Z,69.51
2022-11-28T00:05:36.034Z,69.92
2022-11-28T00:05:48.610Z,69.42
2022-11-28T00:06:09.846Z,69.70
2022-11-28T00:06:22.703Z,69.78
2022-11-28T00:06:37.499Z,69.55
2022-11-28T00:06:50.941Z,69.41
2022-11-28T00:07:03.061Z,69.76
2022-11-28T00:07:15.260Z,70.05
2022-11-28T00:07:27.388Z,70.20
2022-11-28T00:07:39.807Z,70.17
2022-11-28T00:07:51.831Z,70.21
2022-11-28T00:08:04.410Z,70.47
2022-11-28T00:08:16.312Z,69.62
2022-11-28T00:08:28.233Z,69.54
2022-11-28T00:08:40.344Z,70.29
2022-11-28T00:08:52.729Z,69.93
2022-11-28T00:09:04.717Z,69.74
2022-11-28T00:09:19.025Z,69.96
2022-11-28T00:09:31.150Z,70.43
2022-11-28T00:09:43.057Z,69.81
2022-11-28T00:09:55.380Z,70.10
2022-11-28T00:10:07.948Z,69.98
2022-11-28T00:10:20.226Z,69.79
2022-11-28T00:10:32.212Z,70.51
2022-11-28T00:10:44.552Z,69.90
2022-11-28T00:10:56.500Z,70.19
2022-11-28T00:11:12.354Z,70.43
2022-11-28T00:11:24.388Z,70.34
2022-11-28T00:11:36.367Z,70.34
2022-11-28T00:11:49.283Z,70.26
2022-11-28T00:12:01.241Z,69.98
2022-11-28T00:12:13.561Z,70.46
2022-11-28T00:12:26.249Z,69.93
2022-11-28T00:12:40.039Z,69.61
2022-11-28T00:12:51.967Z,70.28
2022-11-28T00:13:04.192Z,69.97
2022-11-28T00:13:16.123Z,69.97
2022-11-28T00:13:28.622Z,70.26
2022-11-28T00:13:41.428Z,70.29
2022-11-28T00:13:54.258Z,70.24
2022-11-28T00:14:07.071Z,70.41
2022-11-28T00:14:19.643Z,69.95
2022-11-28T00:14:31.556Z,70.05
2022-11-28T00:14:43.622Z,69.85
2022-11-28T00:14:55.842Z,70.13
2022-11-28T00:15:08.376Z,70.06
2022-11-28T00:15:20.352Z,69.49
2022-11-28T00:15:32.670Z,69.87
2022-11-28T00:15:44.819Z,70.34
2022-11-28T00:16:02.163Z,69.91
2022-11-28T00:16:17.856Z,70.36
2022-11-28T00:16:29.864Z,69.90
2022-11-28T00:16:42.217Z,70.24
2022-11-28T00:16:54.139Z,70.51
2022-11-28T00:17:06.245Z,69.90
2022-11-28T00:17:18.118Z,70.37
2022-11-28T00:17:30.274Z,70.34
2022-11-28T00:17:42.228Z,70.36
2022-11-28T00:17:54.649Z,70.03
2022-11-28T00:18:06.583Z,70.70
2022-11-28T00:18:18.880Z,70.87
2022-11-28T00:18:31.305Z,70.40
2022-11-28T00:18:44.028Z,70.45
2022-11-28T00:18:56.023Z,70.21
2022-11-28T00:19:08.738Z,70.55
2022-11-28T00:19:20.616Z,70.41
2022-11-28T00:19:32.749Z,70.58
2022-11-28T00:19:44.647Z,70.56
2022-11-28T00:19:57.321Z,70.21
2022-11-28T00:20:09.405Z,70.65
2022-11-28T00:20:21.702Z,70.53
2022-11-28T00:20:33.684Z,70.76
2022-11-28T00:20:45.752Z,70.15
2022-11-28T00:21:06.402Z,70.35
2022-11-28T00:21:19.025Z,70.40
2022-11-28T00:21:31.609Z,70.71
2022-11-28T00:21:43.807Z,70.45
2022-11-28T00:21:55.740Z,70.40
2022-11-28T00:22:08.136Z,70.00
2022-11-28T00:22:20.166Z,70.06
2022-11-28T00:22:32.051Z,70.22
2022-11-28T00:22:43.928Z,70.58
2022-11-28T00:22:56.016Z,70.72
2022-11-28T00:23:07.983Z,70.67
2022-11-28T00:23:19.896Z,70.51
2022-11-28T00:23:33.094Z,70.25
2022-11-28T00:23:47.503Z,70.76
2022-11-28T00:24:00.299Z,70.29
2022-11-28T00:24:12.342Z,70.94
2022-11-28T00:24:26.147Z,71.13
2022-11-28T00:24:39.651Z,70.22
2022-11-28T00:24:51.938Z,69.61
2022-11-28T00:25:04.136Z,69.45
2022-11-28T00:25:16.380Z,69.50
2022-11-28T00:25:28.256Z,69.48
2022-11-28T00:25:40.156Z,70.45
2022-11-28T00:25:59.159Z,70.25
2022-11-28T00:26:14.562Z,70.31
2022-11-28T00:26:29.878Z,70.10
2022-11-28T00:26:42.518Z,69.89
2022-11-28T00:26:54.499Z,70.71
2022-11-28T00:27:06.585Z,70.50
2022-11-28T00:27:18.479Z,71.61
2022-11-28T00:27:30.469Z,70.86
2022-11-28T00:27:42.385Z,71.71
2022-11-28T00:27:54.289Z,71.82
2022-11-28T00:28:06.184Z,71.65
2022-11-28T00:28:18.116Z,71.97
2022-11-28T00:28:30.028Z,71.77
2022-11-28T00:28:42.373Z,71.19
2022-11-28T00:28:55.564Z,71.91
2022-11-28T00:29:08.456Z,71.46
2022-11-28T00:29:20.408Z,71.56
2022-11-28T00:29:32.322Z,71.95
2022-11-28T00:29:44.375Z,71.80
2022-11-28T00:29:56.873Z,71.51
2022-11-28T00:30:09.402Z,71.91
2022-11-28T00:30:21.354Z,71.87
2022-11-28T00:30:37.365Z,71.67
2022-11-28T00:30:49.482Z,71.80
2022-11-28T00:31:01.839Z,71.80
2022-11-28T00:31:20.035Z,71.47
2022-11-28T00:31:42.156Z,71.50
2022-11-28T00:31:55.070Z,71.47
2022-11-28T00:32:07.189Z,71.29
2022-11-28T00:32:19.307Z,70.89
2022-11-28T00:32:31.256Z,71.07
2022-11-28T00:32:43.325Z,71.56
2022-11-28T00:32:55.272Z,71.08
2022-11-28T00:33:07.192Z,71.25
2022-11-28T00:33:19.472Z,71.79
2022-11-28T00:33:33.384Z,71.30
2022-11-28T00:33:46.505Z,71.70
2022-11-28T00:33:58.837Z,71.53
2022-11-28T00:34:13.022Z,71.90
2022-11-28T00:34:25.063Z,71.53
2022-11-28T00:34:37.891Z,71.61
2022-11-28T00:34:49.832Z,71.92
2022-11-28T00:35:01.734Z,71.76
2022-11-28T00:35:14.308Z,71.49
2022-11-28T00:35:26.217Z,71.44
2022-11-28T00:35:38.115Z,71.85
2022-11-28T00:35:50.344Z,72.00
2022-11-28T00:36:04.204Z,71.94
2022-11-28T00:36:17.218Z,71.72
2022-11-28T00:36:30.838Z,71.74
2022-11-28T00:36:45.232Z,72.27
2022-11-28T00:36:57.432Z,72.20
2022-11-28T00:37:09.407Z,71.72
2022-11-28T00:37:21.311Z,72.04
2022-11-28T00:37:33.358Z,71.82
2022-11-28T00:37:45.435Z,72.04
2022-11-28T00:37:57.293Z,72.10
2022-11-28T00:38:09.196Z,72.16
2022-11-28T00:38:21.092Z,72.94
2022-11-28T00:38:33.639Z,73.35
2022-11-28T00:38:45.944Z,72.36
2022-11-28T00:38:58.091Z,72.42
2022-11-28T00:39:10.015Z,73.13
2022-11-28T00:39:23.086Z,73.25
2022-11-28T00:39:35.000Z,72.88
2022-11-28T00:39:47.405Z,72.88
2022-11-28T00:39:59.318Z,73.14
2022-11-28T00:40:11.607Z,73.38
2022-11-28T00:40:23.483Z,72.72
2022-11-28T00:40:35.551Z,73.43
2022-11-28T00:40:47.696Z,73.55
2022-11-28T00:41:04.308Z,73.92
2022-11-28T00:41:19.832Z,73.80
2022-11-28T00:41:34.917Z,73.87
2022-11-28T00:41:46.884Z,73.29
2022-11-28T00:41:58.917Z,73.90
2022-11-28T00:42:10.870Z,73.29
2022-11-28T00:42:22.773Z,73.86
2022-11-28T00:42:34.685Z,74.12
2022-11-28T00:42:46.609Z,72.79
2022-11-28T00:42:59.032Z,73.45
2022-11-28T00:43:12.786Z,73.34
2022-11-28T00:43:24.661Z,72.92
2022-11-28T00:43:37.322Z,73.05
2022-11-28T00:43:50.949Z,73.36
2022-11-28T00:44:02.854Z,73.08
2022-11-28T00:44:14.993Z,73.25
2022-11-28T00:44:26.968Z,73.09
2022-11-28T00:44:38.872Z,72.74
2022-11-28T00:44:50.864Z,73.45
2022-11-28T00:45:02.988Z,72.77
2022-11-28T00:45:15.006Z,72.45
2022-11-28T00:45:27.474Z,73.45
2022-11-28T00:45:39.493Z,73.05
2022-11-28T00:45:51.883Z,72.98
2022-11-28T00:46:04.527Z,73.14
2022-11-28T00:46:17.699Z,73.31
2022-11-28T00:46:29.985Z,73.16
2022-11-28T00:46:42.467Z,72.50
2022-11-28T00:46:54.426Z,72.93
2022-11-28T00:47:06.608Z,73.03
2022-11-28T00:47:18.594Z,72.58
2022-11-28T00:47:30.619Z,72.20
2022-11-28T00:47:42.523Z,72.45
2022-11-28T00:47:54.618Z,72.30
2022-11-28T00:48:06.474Z,72.54
2022-11-28T00:48:18.496Z,72.64
2022-11-28T00:48:31.625Z,72.81
2022-11-28T00:48:43.776Z,72.21
2022-11-28T00:48:57.885Z,72.86
2022-11-28T00:49:09.848Z,72.82
2022-11-28T00:49:21.724Z,72.79
2022-11-28T00:49:33.699Z,72.02
2022-11-28T00:49:45.632Z,72.16
2022-11-28T00:49:57.530Z,72.41
2022-11-28T00:50:09.670Z,72.76
2022-11-28T00:50:21.623Z,71.99
2022-11-28T00:50:33.490Z,71.68
2022-11-28T00:50:45.387Z,71.39
2022-11-28T00:51:11.082Z,70.39
2022-11-28T00:51:26.405Z,70.50
2022-11-28T00:51:38.509Z,71.28
2022-11-28T00:51:50.460Z,70.92
2022-11-28T00:52:02.376Z,71.31
2022-11-28T00:52:14.277Z,71.19
2022-11-28T00:52:26.190Z,71.78
2022-11-28T00:52:38.364Z,71.80
2022-11-28T00:52:50.393Z,72.15
2022-11-28T00:53:02.411Z,71.86
2022-11-28T00:53:14.395Z,71.92
2022-11-28T00:53:26.583Z,72.21
2022-11-28T00:53:42.176Z,72.29
2022-11-28T00:53:55.913Z,72.22
2022-11-28T00:54:08.272Z,72.73
2022-11-28T00:54:20.160Z,72.38
2022-11-28T00:54:32.353Z,72.44
2022-11-28T00:54:44.374Z,72.36
2022-11-28T00:54:56.756Z,72.65
2022-11-28T00:55:08.951Z,72.27
2022-11-28T00:55:21.200Z,72.47
2022-11-28T00:55:33.071Z,72.35
2022-11-28T00:55:45.109Z,72.71
2022-11-28T00:55:57.184Z,72.30
2022-11-28T00:56:14.170Z,72.26
2022-11-28T00:56:30.782Z,72.80
2022-11-28T00:56:43.139Z,72.33
2022-11-28T00:56:55.099Z,72.15
2022-11-28T00:57:07.284Z,72.14
2022-11-28T00:57:19.197Z,71.90
2022-11-28T00:57:31.887Z,71.81
2022-11-28T00:57:43.868Z,72.26
2022-11-28T00:57:56.157Z,72.29
2022-11-28T00:58:08.343Z,72.55
2022-11-28T00:58:20.299Z,72.17
2022-11-28T00:58:36.475Z,71.80
2022-11-28T00:58:49.634Z,72.54
2022-11-28T00:59:01.908Z,72.45
2022-11-28T00:59:13.952Z,72.43
2022-11-28T00:59:25.849Z,72.24
2022-11-28T00:59:38.330Z,72.48
2022-11-28T00:59:50.273Z,72.80
2022-11-28T01:00:02.275Z,72.31
2022-11-28T01:00:14.805Z,72.43
2022-11-28T01:00:26.727Z,72.39
2022-11-28T01:00:39.230Z,72.67
2022-11-28T01:00:51.220Z,72.84
2022-11-28T01:01:27.589Z,72.50
2022-11-28T01:01:43.744Z,72.49
2022-11-28T01:01:55.890Z,72.60
2022-11-28T01:02:07.897Z,72.39
2022-11-28T01:02:19.860Z,72.75
2022-11-28T01:02:32.014Z,72.78
2022-11-28T01:02:43.953Z,72.76
2022-11-28T01:02:56.924Z,72.59
2022-11-28T01:03:08.851Z,72.84
2022-11-28T01:03:21.042Z,72.36
2022-11-28T01:03:32.939Z,72.46
2022-11-28T01:03:46.388Z,72.45
2022-11-28T01:04:00.880Z,72.69
2022-11-28T01:04:15.188Z,72.71
2022-11-28T01:04:27.802Z,72.37
2022-11-28T01:04:39.851Z,72.05
2022-11-28T01:04:52.310Z,71.80
2022-11-28T01:05:04.588Z,72.16
2022-11-28T01:05:16.703Z,72.47
2022-11-28T01:05:28.612Z,72.08
2022-11-28T01:05:43.151Z,72.53
2022-11-28T01:05:55.163Z,72.16
2022-11-28T01:06:08.324Z,72.25
2022-11-28T01:06:40.943Z,72.05
2022-11-28T01:06:53.432Z,72.16
2022-11-28T01:07:05.375Z,72.03
2022-11-28T01:07:17.365Z,72.44
2022-11-28T01:07:29.398Z,71.89
2022-11-28T01:07:42.468Z,71.96
2022-11-28T01:07:54.630Z,71.76
2022-11-28T01:08:06.534Z,72.30
2022-11-28T01:08:18.422Z,72.66
2022-11-28T01:08:30.504Z,72.53
2022-11-28T01:08:42.450Z,72.09
2022-11-28T01:08:55.459Z,72.69
2022-11-28T01:09:13.867Z,71.95
2022-11-28T01:09:26.049Z,71.99
2022-11-28T01:09:37.943Z,71.89
2022-11-28T01:09:49.950Z,72.18
2022-11-28T01:10:01.908Z,72.77
2022-11-28T01:10:14.462Z,72.51
2022-11-28T01:10:27.179Z,72.80
2022-11-28T01:10:42.197Z,72.32
2022-11-28T01:10:54.274Z,72.14
2022-11-28T01:11:13.515Z,72.20
2022-11-28T01:11:25.817Z,72.08
2022-11-28T01:11:39.877Z,72.46
2022-11-28T01:11:53.464Z,72.59
2022-11-28T01:12:05.742Z,72.67
2022-11-28T01:12:17.698Z,72.73
2022-11-28T01:12:29.631Z,72.62
2022-11-28T01:12:41.551Z,72.82
2022-11-28T01:12:53.536Z,72.71
2022-11-28T01:13:05.654Z,72.61
2022-11-28T01:13:17.580Z,72.50
2022-11-28T01:13:29.809Z,72.89
2022-11-28T01:13:41.789Z,72.96
2022-11-28T01:13:58.382Z,72.81
2022-11-28T01:14:12.425Z,73.13
2022-11-28T01:14:26.828Z,72.71
2022-11-28T01:14:38.713Z,72.64
2022-11-28T01:14:51.019Z,72.56
2022-11-28T01:15:04.929Z,72.83
2022-11-28T01:15:16.894Z,72.66
2022-11-28T01:15:28.830Z,72.74
2022-11-28T01:15:41.890Z,72.71
2022-11-28T01:15:54.266Z,72.69
2022-11-28T01:16:06.904Z,73.18
2022-11-28T01:16:18.946Z,72.93
2022-11-28T01:16:31.041Z,73.14
2022-11-28T01:16:43.059Z,72.54
2022-11-28T01:16:55.472Z,72.66
2022-11-28T01:17:07.404Z,73.33
2022-11-28T01:17:19.300Z,72.83
2022-11-28T01:17:31.196Z,73.01
2022-11-28T01:17:43.096Z,72.54
2022-11-28T01:17:55.025Z,72.94
2022-11-28T01:18:07.071Z,73.30
2022-11-28T01:18:18.977Z,73.44
2022-11-28T01:18:30.912Z,72.75
2022-11-28T01:18:42.896Z,73.32
2022-11-28T01:18:55.088Z,72.98
2022-11-28T01:19:07.080Z,73.14
2022-11-28T01:19:19.252Z,73.43
2022-11-28T01:19:31.269Z,73.21
2022-11-28T01:19:43.175Z,73.56
2022-11-28T01:19:55.498Z,73.65
2022-11-28T01:20:09.122Z,73.45
2022-11-28T01:20:21.035Z,73.01
2022-11-28T01:20:32.995Z,73.50
2022-11-28T01:20:45.060Z,73.49
2022-11-28T01:20:57.009Z,73.27
2022-11-28T01:21:09.761Z,73.57
2022-11-28T01:21:21.865Z,73.11
2022-11-28T01:21:34.867Z,73.63
2022-11-28T01:21:46.971Z,73.06
2022-11-28T01:21:58.960Z,73.52
2022-11-28T01:22:11.058Z,73.17
2022-11-28T01:22:22.958Z,73.20
2022-11-28T01:22:35.038Z,73.66
2022-11-28T01:22:46.978Z,73.16
2022-11-28T01:22:59.061Z,72.81
2022-11-28T01:23:11.273Z,73.56
2022-11-28T01:23:23.181Z,73.29
2022-11-28T01:23:35.882Z,73.07
2022-11-28T01:23:48.349Z,73.61
2022-11-28T01:24:00.331Z,73.04
2022-11-28T01:24:12.543Z,73.01
2022-11-28T01:24:24.416Z,72.78
2022-11-28T01:24:36.343Z,73.68
2022-11-28T01:24:48.267Z,73.38
2022-11-28T01:25:00.303Z,73.42
2022-11-28T01:25:12.195Z,73.45
2022-11-28T01:25:24.276Z,73.12
2022-11-28T01:25:36.351Z,73.64
2022-11-28T01:25:48.241Z,73.62
2022-11-28T01:26:01.225Z,73.51
2022-11-28T01:26:22.765Z,73.63
2022-11-28T01:26:34.956Z,73.19
2022-11-28T01:26:46.882Z,73.18
2022-11-28T01:26:58.900Z,72.94
2022-11-28T01:27:11.876Z,73.66
2022-11-28T01:27:23.830Z,72.97
2022-11-28T01:27:35.774Z,73.06
2022-11-28T01:27:47.788Z,73.29
2022-11-28T01:27:59.771Z,73.53
2022-11-28T01:28:11.720Z,73.37
2022-11-28T01:28:23.749Z,73.44
2022-11-28T01:28:35.879Z,73.10
2022-11-28T01:28:48.376Z,72.95
2022-11-28T01:29:01.032Z,73.42
2022-11-28T01:29:13.097Z,73.65
2022-11-28T01:29:25.523Z,73.66
2022-11-28T01:29:37.446Z,73.10
2022-11-28T01:29:49.660Z,73.10
2022-11-28T01:30:01.775Z,73.42
2022-11-28T01:30:13.815Z,73.08
2022-11-28T01:30:25.956Z,73.18
2022-11-28T01:30:37.888Z,73.50
2022-11-28T01:30:50.000Z,73.30
2022-11-28T01:31:07.367Z,72.96
2022-11-28T01:31:22.408Z,73.14
2022-11-28T01:31:35.076Z,73.57
2022-11-28T01:31:47.249Z,73.20
2022-11-28T01:31:59.334Z,73.92
2022-11-28T01:32:11.297Z,73.86
2022-11-28T01:32:23.413Z,73.49
2022-11-28T01:32:35.329Z,74.34
2022-11-28T01:32:47.273Z,73.78
2022-11-28T01:32:59.195Z,73.82
2022-11-28T01:33:11.080Z,73.40
2022-11-28T01:33:22.936Z,73.82
2022-11-28T01:33:35.341Z,73.29
2022-11-28T01:33:47.850Z,72.97
2022-11-28T01:34:00.721Z,73.39
2022-11-28T01:34:12.596Z,73.31
2022-11-28T01:34:24.717Z,73.57
2022-11-28T01:34:36.825Z,73.80
2022-11-28T01:34:49.123Z,73.36
2022-11-28T01:35:01.051Z,73.61
2022-11-28T01:35:13.477Z,73.67
2022-11-28T01:35:25.372Z,73.73
2022-11-28T01:35:37.747Z,73.81
2022-11-28T01:35:57.091Z,73.41
2022-11-28T01:36:10.974Z,73.98
2022-11-28T01:36:23.596Z,73.79
2022-11-28T01:36:35.958Z,73.83
2022-11-28T01:36:47.879Z,74.19
2022-11-28T01:37:00.386Z,73.82
2022-11-28T01:37:12.302Z,74.39
2022-11-28T01:37:24.610Z,73.45
2022-11-28T01:37:36.633Z,73.57
2022-11-28T01:37:48.771Z,74.07
2022-11-28T01:38:00.714Z,72.99
2022-11-28T01:38:12.663Z,72.89
2022-11-28T01:38:24.995Z,73.05
2022-11-28T01:38:37.045Z,73.35
2022-11-28T01:38:49.737Z,73.72
2022-11-28T01:39:01.640Z,73.47
2022-11-28T01:39:15.998Z,73.00
2022-11-28T01:39:27.917Z,72.87
2022-11-28T01:39:40.258Z,72.70
2022-11-28T01:39:52.214Z,72.80
2022-11-28T01:40:05.159Z,72.87
2022-11-28T01:40:17.314Z,72.95
2022-11-28T01:40:29.396Z,72.90
2022-11-28T01:40:46.958Z,73.37
2022-11-28T01:40:58.936Z,73.33
2022-11-28T01:41:12.855Z,73.40
2022-11-28T01:41:26.927Z,73.76
2022-11-28T01:41:40.390Z,74.00
2022-11-28T01:41:52.347Z,74.29
2022-11-28T01:42:04.259Z,74.47
2022-11-28T01:42:18.428Z,74.29
2022-11-28T01:42:30.481Z,74.63
2022-11-28T01:42:42.380Z,74.16
2022-11-28T01:42:54.330Z,74.52
2022-11-28T01:43:06.351Z,74.69
2022-11-28T01:43:18.918Z,74.20
2022-11-28T01:43:31.228Z,74.38
2022-11-28T01:44:15.560Z,74.10
2022-11-28T01:44:27.586Z,74.58
2022-11-28T01:44:42.289Z,74.19
2022-11-28T01:44:54.250Z,74.03
2022-11-28T01:45:18.610Z,73.94
2022-11-28T01:45:33.477Z,73.58
2022-11-28T01:45:45.546Z,73.84
2022-11-28T01:45:57.525Z,73.90
2022-11-28T01:46:09.736Z,74.18
2022-11-28T01:46:21.861Z,73.98
2022-11-28T01:46:35.893Z,73.72
2022-11-28T01:46:47.932Z,74.24
2022-11-28T01:46:59.899Z,73.61
2022-11-28T01:47:11.930Z,73.93
2022-11-28T01:47:29.750Z,73.83
2022-11-28T01:47:42.511Z,74.03
2022-11-28T01:47:58.656Z,73.27
2022-11-28T01:48:20.898Z,74.01
2022-11-28T01:48:37.914Z,73.15
2022-11-28T01:48:51.174Z,73.72
2022-11-28T01:49:09.986Z,73.68
2022-11-28T01:49:29.368Z,73.42
2022-11-28T01:49:42.336Z,74.04
2022-11-28T01:49:55.467Z,73.78
2022-11-28T01:50:08.640Z,73.59
2022-11-28T01:50:22.377Z,73.48
2022-11-28T01:50:36.099Z,73.97
2022-11-28T01:50:52.708Z,74.00
2022-11-28T01:51:08.809Z,73.48
2022-11-28T01:51:21.052Z,73.30
2022-11-28T01:51:34.319Z,73.60
2022-11-28T01:51:50.929Z,73.93
2022-11-28T01:52:09.774Z,73.29
2022-11-28T01:52:23.331Z,73.70
2022-11-28T01:52:38.562Z,73.59
2022-11-28T01:52:59.954Z,73.69
2022-11-28T01:53:12.917Z,73.69
2022-11-28T01:53:29.391Z,73.24
2022-11-28T01:53:45.586Z,73.51
2022-11-28T01:53:59.121Z,73.20
2022-11-28T01:54:12.198Z,73.61
2022-11-28T01:54:26.356Z,73.25
2022-11-28T01:54:41.133Z,72.91
2022-11-28T01:54:58.903Z,72.89
2022-11-28T01:55:13.416Z,73.44
2022-11-28T01:55:28.783Z,72.88
2022-11-28T01:55:48.635Z,73.24
2022-11-28T01:56:08.569Z,73.09
2022-11-28T01:56:24.799Z,73.49
2022-11-28T01:56:55.057Z,72.60
2022-11-28T01:57:11.741Z,73.03
2022-11-28T01:57:25.357Z,72.98
2022-11-28T01:57:37.323Z,73.15
2022-11-28T01:57:49.526Z,72.95
2022-11-28T01:58:01.625Z,73.42
2022-11-28T01:58:14.147Z,73.19
2022-11-28T01:58:27.212Z,73.28
2022-11-28T01:58:45.031Z,72.96
2022-11-28T01:59:04.509Z,73.16
2022-11-28T01:59:18.876Z,72.89
2022-11-28T01:59:35.420Z,72.89
2022-11-28T01:59:54.363Z,72.92
2022-11-28T02:00:16.587Z,73.17
2022-11-28T02:00:28.622Z,72.22
2022-11-28T02:00:40.549Z,72.33
2022-11-28T02:00:53.391Z,73.22
2022-11-28T02:01:07.758Z,72.67
2022-11-28T02:01:21.546Z,72.50
2022-11-28T02:01:33.613Z,72.38
2022-11-28T02:01:46.413Z,72.69
2022-11-28T02:01:58.477Z,73.06
2022-11-28T02:02:18.281Z,72.71
2022-11-28T02:02:38.638Z,72.42
2022-11-28T02:03:00.548Z,73.36
2022-11-28T02:03:25.946Z,72.97
2022-11-28T02:03:46.834Z,73.04
2022-11-28T02:03:59.392Z,73.05
2022-11-28T02:04:14.156Z,72.78
2022-11-28T02:04:27.891Z,72.95
2022-11-28T02:04:40.350Z,72.55
2022-11-28T02:04:53.463Z,72.80
2022-11-28T02:05:06.126Z,73.10
2022-11-28T02:05:20.915Z,72.67
2022-11-28T02:05:33.440Z,73.03
2022-11-28T02:05:45.956Z,72.77
2022-11-28T02:05:58.152Z,72.98
2022-11-28T02:06:12.828Z,72.90
2022-11-28T02:06:26.142Z,72.87
2022-11-28T02:06:38.016Z,72.56
2022-11-28T02:06:49.947Z,72.85
2022-11-28T02:07:01.972Z,72.74
2022-11-28T02:07:14.363Z,72.76
2022-11-28T02:07:26.957Z,72.64
2022-11-28T02:07:39.112Z,72.85
2022-11-28T02:07:51.922Z,72.66
2022-11-28T02:08:04.372Z,72.65
2022-11-28T02:08:16.334Z,72.85
2022-11-28T02:08:32.939Z,72.58
2022-11-28T02:08:45.083Z,72.93
2022-11-28T02:08:57.083Z,72.66
2022-11-28T02:09:13.662Z,72.61
2022-11-28T02:09:25.657Z,72.46
2022-11-28T02:09:37.701Z,72.12
2022-11-28T02:09:49.618Z,72.04
2022-11-28T02:10:06.045Z,72.52
2022-11-28T02:10:27.145Z,72.56
2022-11-28T02:10:51.708Z,72.56
2022-11-28T02:11:14.204Z,72.13
2022-11-28T02:11:49.853Z,72.12
2022-11-28T02:12:22.960Z,72.09
2022-11-28T02:12:40.774Z,72.43
2022-11-28T02:13:27.411Z,72.46
2022-11-28T02:14:08.338Z,72.59
2022-11-28T02:14:26.114Z,72.35
2022-11-28T02:14:59.485Z,72.34
2022-11-28T02:15:22.546Z,72.62
2022-11-28T02:16:18.627Z,72.30
2022-11-28T02:16:49.085Z,73.10
2022-11-28T02:17:38.459Z,72.99
2022-11-28T02:18:05.143Z,72.56
2022-11-28T02:18:38.711Z,72.15
2022-11-28T02:19:18.352Z,72.40
2022-11-28T02:20:04.257Z,72.52
2022-11-28T02:20:53.515Z,72.57
2022-11-28T02:21:22.996Z,72.31
2022-11-28T02:21:58.279Z,72.40
2022-11-28T02:22:41.472Z,72.61
2022-11-28T02:22:59.300Z,72.38
2022-11-28T02:23:21.749Z,72.28
2022-11-28T02:24:22.901Z,72.29
2022-11-28T02:24:59.927Z,72.40
2022-11-28T02:25:15.817Z,71.89
2022-11-28T02:25:27.671Z,72.77
2022-11-28T02:25:48.305Z,72.49
2022-11-28T02:26:46.123Z,72.19
2022-11-28T02:27:19.593Z,72.27
2022-11-28T02:27:40.263Z,71.69
2022-11-28T02:28:10.939Z,71.42
2022-11-28T02:28:34.087Z,71.02
2022-11-28T02:28:48.812Z,71.78
2022-11-28T02:29:19.822Z,71.35
2022-11-28T02:30:02.899Z,71.98
2022-11-28T02:30:19.879Z,71.99
2022-11-28T02:31:06.608Z,72.25
2022-11-28T02:31:39.789Z,72.82
2022-11-28T02:31:57.128Z,73.05
2022-11-28T02:32:18.894Z,72.81
2022-11-28T02:33:22.686Z,72.60
2022-11-28T02:33:39.827Z,72.95
2022-11-28T02:33:57.449Z,73.04
2022-11-28T02:34:18.674Z,72.47
2022-11-28T02:35:04.249Z,73.04
2022-11-28T02:35:49.473Z,72.92
2022-11-28T02:36:25.616Z,73.03
2022-11-28T02:37:07.215Z,73.46
2022-11-28T02:37:43.813Z,72.81
2022-11-28T02:38:04.527Z,72.61
2022-11-28T02:38:23.000Z,72.64
2022-11-28T02:38:56.458Z,72.88
2022-11-28T02:39:25.049Z,71.95
2022-11-28T02:39:52.770Z,71.98
2022-11-28T02:40:07.559Z,71.51
2022-11-28T02:40:26.312Z,71.51
2022-11-28T02:41:06.633Z,70.98
2022-11-28T02:41:45.567Z,71.78
2022-11-28T02:42:18.247Z,71.71
2022-11-28T02:42:45.121Z,72.44
2022-11-28T02:43:18.955Z,72.04
2022-11-28T02:43:43.481Z,72.52
2022-11-28T02:44:04.686Z,72.42
2022-11-28T02:44:18.913Z,71.91
2022-11-28T02:44:41.703Z,71.88
2022-11-28T02:45:06.441Z,72.00
2022-11-28T02:45:27.463Z,72.15
2022-11-28T02:45:57.891Z,72.41
2022-11-28T02:46:32.035Z,71.99
2022-11-28T02:46:59.133Z,71.99
2022-11-28T02:47:32.267Z,72.34
2022-11-28T02:47:56.381Z,72.20
2022-11-28T02:48:24.407Z,71.73
2022-11-28T02:48:42.987Z,72.32
2022-11-28T02:49:34.166Z,71.74
2022-11-28T02:50:13.220Z,71.95
2022-11-28T02:50:31.737Z,72.08
2022-11-28T02:50:56.331Z,72.24
2022-11-28T02:51:58.133Z,71.96
2022-11-28T02:52:15.559Z,72.37
2022-11-28T02:52:41.759Z,72.35
2022-11-28T02:52:59.456Z,72.00
2022-11-28T02:53:20.011Z,71.96
2022-11-28T02:53:34.012Z,72.09
2022-11-28T02:53:48.789Z,71.85
2022-11-28T02:54:03.705Z,72.51
2022-11-28T02:54:18.485Z,71.99
2022-11-28T02:54:31.749Z,71.40
2022-11-28T02:54:44.399Z,71.74
2022-11-28T02:54:57.111Z,71.59
2022-11-28T02:55:09.538Z,71.84
2022-11-28T02:55:22.815Z,71.88
2022-11-28T02:55:39.374Z,72.13
2022-11-28T02:55:52.896Z,71.55
2022-11-28T02:56:05.417Z,72.02
2022-11-28T02:56:17.390Z,72.03
2022-11-28T02:56:29.374Z,72.19
2022-11-28T02:56:52.185Z,71.80
2022-11-28T02:57:04.252Z,71.29
2022-11-28T02:57:16.137Z,71.57
2022-11-28T02:57:38.808Z,71.33
2022-11-28T02:57:53.618Z,71.21
2022-11-28T02:58:05.555Z,71.58
2022-11-28T02:58:18.653Z,71.59
2022-11-28T02:58:30.601Z,72.22
2022-11-28T02:58:42.483Z,72.31
2022-11-28T02:58:54.914Z,72.28
2022-11-28T02:59:31.073Z,72.53
2022-11-28T02:59:42.992Z,72.81
2022-11-28T02:59:55.485Z,72.70
2022-11-28T03:00:23.039Z,72.95
2022-11-28T03:00:37.518Z,72.54
2022-11-28T03:00:51.464Z,72.37
2022-11-28T03:01:04.765Z,73.05
2022-11-28T03:01:24.436Z,72.43
2022-11-28T03:01:38.635Z,73.10
2022-11-28T03:01:50.592Z,72.59
2022-11-28T03:02:04.523Z,73.07
2022-11-28T03:02:24.667Z,72.56
2022-11-28T03:02:37.052Z,72.38
2022-11-28T03:03:08.974Z,72.48
2022-11-28T03:03:36.363Z,72.56
2022-11-28T03:04:00.173Z,72.76
2022-11-28T03:04:30.492Z,72.17
2022-11-28T03:05:08.313Z,72.88
2022-11-28T03:05:47.170Z,72.00
2022-11-28T03:06:12.273Z,72.52
2022-11-28T03:06:51.420Z,72.48
2022-11-28T03:07:21.087Z,74.35
2022-11-28T03:07:56.182Z,73.89
2022-11-28T03:08:35.853Z,74.17
2022-11-28T03:09:17.970Z,74.13
2022-11-28T03:09:57.276Z,73.87
2022-11-28T03:10:48.360Z,73.62
2022-11-28T03:11:31.002Z,74.04
2022-11-28T03:12:01.264Z,73.34
2022-11-28T03:12:38.635Z,73.91
2022-11-28T03:13:01.296Z,73.76
2022-11-28T03:13:27.742Z,73.66
2022-11-28T03:13:54.335Z,73.55
2022-11-28T03:14:14.562Z,73.54
2022-11-28T03:14:45.153Z,73.36
2022-11-28T03:15:00.913Z,72.88
2022-11-28T03:15:19.034Z,73.00
2022-11-28T03:15:59.928Z,73.22
2022-11-28T03:16:29.272Z,73.42
2022-11-28T03:17:14.939Z,72.72
2022-11-28T03:17:52.177Z,73.03
2022-11-28T03:18:06.890Z,72.61
2022-11-28T03:18:50.132Z,73.07
2022-11-28T03:19:18.498Z,72.69
2022-11-28T03:19:39.337Z,73.23
2022-11-28T03:19:59.948Z,72.76
2022-11-28T03:20:24.354Z,72.81
2022-11-28T03:20:55.926Z,72.82
2022-11-28T03:21:23.394Z,72.61
2022-11-28T03:21:53.829Z,72.47
2022-11-28T03:22:11.536Z,72.33
2022-11-28T03:22:38.237Z,72.12
2022-11-28T03:22:59.035Z,72.92
2022-11-28T03:23:21.017Z,72.59
2022-11-28T03:24:02.926Z,72.98
2022-11-28T03:24:23.709Z,73.98
2022-11-28T03:24:45.791Z,73.81
2022-11-28T03:25:32.966Z,74.11
2022-11-28T03:25:56.067Z,74.14
2022-11-28T03:26:12.385Z,74.47
2022-11-28T03:26:38.421Z,74.90
2022-11-28T03:27:02.870Z,74.73
2022-11-28T03:27:42.289Z,74.97
2022-11-28T03:28:03.622Z,74.94
2022-11-28T03:28:25.106Z,75.39
2022-11-28T03:28:57.565Z,74.96
2022-11-28T03:29:15.204Z,75.35
2022-11-28T03:29:49.011Z,75.15
2022-11-28T03:30:13.467Z,75.46
2022-11-28T03:30:36.546Z,73.98
2022-11-28T03:30:55.082Z,73.68